Tuesday, March 31, 2015, 8:34 AM EDT

KGED, Georgetown Sussex Co Airport

Location: Georgetown, DE, United States Lat: 38.683
Local Time: 8:34 AM EDT (12:34 GMT) Lon: -75.367
Time Zone: US/Eastern Elev: 52 ft

Show me the last for .
Show Decoded

2015-03-31 07:54 METAR KGED 311154Z AUTO 24004KT 10SM CLR 08/M03 A2995 RMK AO2 SLP141 70001
                 T00781028 10083 20033 53008 =
2015-03-31 06:54 METAR KGED 311054Z AUTO 24004KT 10SM CLR 06/M03 A2994 RMK AO2 SLP138 T00561033 $
                 =
2015-03-31 05:54 METAR KGED 310954Z AUTO VRB04KT 10SM CLR 08/M04 A2992 RMK AO2 SLP133 T00781039 $
                 =
2015-03-31 04:54 METAR KGED 310854Z AUTO 26004KT 10SM CLR 08/M04 A2992 RMK AO2 SLP132 T00831044
                 55005 $ =
2015-03-31 02:54 METAR KGED 310654Z AUTO 23005KT 10SM CLR 05/M03 A2992 RMK AO2 SLP133 T00501033 $
                 =
2015-03-31 01:54 METAR KGED 310554Z AUTO 24004KT 10SM CLR 05/M03 A2994 RMK AO2 SLP137 T00501033
                 10117 20039 56007 $ =
2015-03-31 00:54 METAR KGED 310454Z AUTO 23004KT 10SM CLR 05/M03 A2994 RMK AO2 SLP139 T00501028
                 401500000 $ =
2015-03-30 23:54 METAR KGED 310354Z AUTO 00000KT CLR 06/M03 A2995 RMK AO2 SLP142 T00611033 $ =
2015-03-30 22:54 METAR KGED 310254Z AUTO 30003KT CLR 09/M04 A2996 RMK AO2 SLP144 T00941039 51028
                 $ =
2015-03-30 21:54 METAR KGED 310154Z AUTO 30003KT CLR 09/M02 A2995 RMK AO2 SLP141 T00941022 $ =
2015-03-30 20:54 METAR KGED 310054Z AUTO 00000KT CLR 08/M02 A2991 RMK AO2 SLP129 T00831017 $ =
2015-03-30 19:54 METAR KGED 302354Z AUTO 00000KT CLR 12/M03 A2987 RMK AO2 SLP116 T01171028 10150
                 20111 53010 $ =
2015-03-30 18:54 METAR KGED 302254Z AUTO VRB04KT CLR 14/M04 A2986 RMK AO2 SLP111 T01441039 $ =
2015-03-30 17:54 METAR KGED 302154Z AUTO 30010G16KT FEW075 14/M02 A2985 RMK AO2 SLP108 T01441017
                 $ =
2015-03-30 16:54 METAR KGED 302054Z AUTO 29011G19KT BKN080 15/M02 A2984 RMK AO2 SLP105 T01501017
                 56012 $ =
2015-03-30 15:54 METAR KGED 301954Z AUTO 29006G16KT BKN060 14/M01 A2984 RMK AO2 SLP105 T01441006
                 $ =
2015-03-30 14:54 METAR KGED 301854Z AUTO 30012G18KT CLR 13/01 A2986 RMK AO2 SLP110 T01330006 $ =
2015-03-30 13:54 METAR KGED 301754Z AUTO 25010KT FEW060 11/01 A2988 RMK AO2 SLP117 60001
                 T01110011 10111 20028 56025 $ =
2015-03-30 12:54 METAR KGED 301654Z AUTO 24012G19KT 10SM BKN065 10/01 A2990 RMK AO2 SLP125
                 T01000006 =
2015-03-30 11:54 METAR KGED 301554Z AUTO 22014G18KT 10SM OVC050 08/01 A2992 RMK AO2 PK WND
                 22026/1514 SLP133 T00830006 =
2015-03-30 10:54 METAR KGED 301454Z AUTO 22015G19KT 10SM BKN050 OVC070 07/00 A2995 RMK AO2 SLP142
                 60001 T00670000 56011 =
2015-03-30 09:54 METAR KGED 301354Z AUTO 21013KT 10SM SCT050 BKN070 OVC100 05/01 A2995 RMK AO2
                 SLP143 T00500006 =
2015-03-30 08:54 METAR KGED 301254Z AUTO 21011KT 10SM OVC060 04/01 A2997 RMK AO2 RAE41 SLP148
                 P0001 T00390006 =

Support USWX by starting your Amazon purchase here.